sensor_id;sensor_type;location;lat;lon;timestamp;temperature;humidity
11188;DHT22;5650;52.700;7.306;2023-09-19T00:00:58;16.20;99.90
11188;DHT22;5650;52.700;7.306;2023-09-19T00:03:25;16.00;99.90
11188;DHT22;5650;52.700;7.306;2023-09-19T00:06:03;15.90;99.90
11188;DHT22;5650;52.700;7.306;2023-09-19T00:08:33;15.70;99.90
11188;DHT22;5650;52.700;7.306;2023-09-19T00:11:00;15.70;99.90
11188;DHT22;5650;52.700;7.306;2023-09-19T00:13:35;15.50;99.90
11188;DHT22;5650;52.700;7.306;2023-09-19T00:16:09;15.40;99.90
11188;DHT22;5650;52.700;7.306;2023-09-19T00:18:37;15.40;99.90
11188;DHT22;5650;52.700;7.306;2023-09-19T00:21:07;15.40;99.90
11188;DHT22;5650;52.700;7.306;2023-09-19T00:23:39;15.30;99.90
11188;DHT22;5650;52.700;7.306;2023-09-19T00:26:10;15.30;99.90
11188;DHT22;5650;52.700;7.306;2023-09-19T00:28:59;15.30;99.90
11188;DHT22;5650;52.700;7.306;2023-09-19T00:31:34;15.30;99.90
11188;DHT22;5650;52.700;7.306;2023-09-19T00:34:08;15.30;99.90
11188;DHT22;5650;52.700;7.306;2023-09-19T00:36:36;15.30;99.90
11188;DHT22;5650;52.700;7.306;2023-09-19T00:39:04;15.30;99.90
11188;DHT22;5650;52.700;7.306;2023-09-19T00:41:32;15.30;99.90
11188;DHT22;5650;52.700;7.306;2023-09-19T00:44:10;15.20;99.90
11188;DHT22;5650;52.700;7.306;2023-09-19T00:46:38;15.20;99.90
11188;DHT22;5650;52.700;7.306;2023-09-19T00:49:08;15.20;99.90
11188;DHT22;5650;52.700;7.306;2023-09-19T00:51:35;15.10;99.90
11188;DHT22;5650;52.700;7.306;2023-09-19T00:54:03;15.20;99.90
11188;DHT22;5650;52.700;7.306;2023-09-19T00:56:33;15.20;99.90
11188;DHT22;5650;52.700;7.306;2023-09-19T01:02:31;15.10;99.90
11188;DHT22;5650;52.700;7.306;2023-09-19T01:04:58;15.20;99.90
11188;DHT22;5650;52.700;7.306;2023-09-19T01:07:32;15.20;99.90
11188;DHT22;5650;52.700;7.306;2023-09-19T01:10:05;15.20;99.90
11188;DHT22;5650;52.700;7.306;2023-09-19T01:12:48;15.20;99.90
11188;DHT22;5650;52.700;7.306;2023-09-19T01:15:25;15.20;99.90
11188;DHT22;5650;52.700;7.306;2023-09-19T01:18:02;15.20;99.90
11188;DHT22;5650;52.700;7.306;2023-09-19T01:20:40;15.20;99.90
11188;DHT22;5650;52.700;7.306;2023-09-19T01:23:17;15.20;99.90
11188;DHT22;5650;52.700;7.306;2023-09-19T01:28:53;15.20;99.90
11188;DHT22;5650;52.700;7.306;2023-09-19T01:31:24;15.20;99.90
11188;DHT22;5650;52.700;7.306;2023-09-19T01:33:59;15.20;99.90
11188;DHT22;5650;52.700;7.306;2023-09-19T01:36:28;15.10;99.90
11188;DHT22;5650;52.700;7.306;2023-09-19T01:38:57;15.10;99.90
11188;DHT22;5650;52.700;7.306;2023-09-19T01:41:54;15.10;99.90
11188;DHT22;5650;52.700;7.306;2023-09-19T01:44:34;15.10;99.90
11188;DHT22;5650;52.700;7.306;2023-09-19T01:47:18;15.10;99.90
11188;DHT22;5650;52.700;7.306;2023-09-19T01:52:51;15.00;99.90
11188;DHT22;5650;52.700;7.306;2023-09-19T01:55:21;15.00;99.90
11188;DHT22;5650;52.700;7.306;2023-09-19T01:57:58;15.00;99.90
11188;DHT22;5650;52.700;7.306;2023-09-19T02:00:43;15.00;99.90
11188;DHT22;5650;52.700;7.306;2023-09-19T02:03:15;15.00;99.90
11188;DHT22;5650;52.700;7.306;2023-09-19T02:05:49;15.00;99.90
11188;DHT22;5650;52.700;7.306;2023-09-19T02:08:17;15.00;99.90
11188;DHT22;5650;52.700;7.306;2023-09-19T02:10:45;14.90;99.90
11188;DHT22;5650;52.700;7.306;2023-09-19T02:13:15;14.90;99.90
11188;DHT22;5650;52.700;7.306;2023-09-19T02:15:45;14.90;99.90
11188;DHT22;5650;52.700;7.306;2023-09-19T02:18:15;14.90;99.90
11188;DHT22;5650;52.700;7.306;2023-09-19T02:20:42;14.80;99.90
11188;DHT22;5650;52.700;7.306;2023-09-19T02:23:10;14.80;99.90
11188;DHT22;5650;52.700;7.306;2023-09-19T02:25:38;14.80;99.90
11188;DHT22;5650;52.700;7.306;2023-09-19T02:28:07;14.70;99.90
11188;DHT22;5650;52.700;7.306;2023-09-19T02:30:38;14.70;99.90
11188;DHT22;5650;52.700;7.306;2023-09-19T02:33:05;14.70;99.90
11188;DHT22;5650;52.700;7.306;2023-09-19T02:35:35;14.70;99.90
11188;DHT22;5650;52.700;7.306;2023-09-19T02:38:03;14.60;99.90
11188;DHT22;5650;52.700;7.306;2023-09-19T02:40:32;14.60;99.90
11188;DHT22;5650;52.700;7.306;2023-09-19T02:43:10;14.60;99.90
11188;DHT22;5650;52.700;7.306;2023-09-19T02:45:40;14.60;99.90
11188;DHT22;5650;52.700;7.306;2023-09-19T02:48:08;14.60;99.90
11188;DHT22;5650;52.700;7.306;2023-09-19T02:50:39;14.60;99.90
11188;DHT22;5650;52.700;7.306;2023-09-19T02:53:06;14.50;99.90
11188;DHT22;5650;52.700;7.306;2023-09-19T02:55:34;14.50;99.90
11188;DHT22;5650;52.700;7.306;2023-09-19T02:58:10;14.50;99.90
11188;DHT22;5650;52.700;7.306;2023-09-19T03:00:38;14.40;99.90
11188;DHT22;5650;52.700;7.306;2023-09-19T03:03:13;14.40;99.90
11188;DHT22;5650;52.700;7.306;2023-09-19T03:05:43;14.40;99.90
11188;DHT22;5650;52.700;7.306;2023-09-19T03:08:12;14.40;99.90
11188;DHT22;5650;52.700;7.306;2023-09-19T03:10:41;14.30;99.90
11188;DHT22;5650;52.700;7.306;2023-09-19T03:13:08;14.30;99.90
11188;DHT22;5650;52.700;7.306;2023-09-19T03:15:41;14.30;99.90
11188;DHT22;5650;52.700;7.306;2023-09-19T03:18:12;14.40;99.90
11188;DHT22;5650;52.700;7.306;2023-09-19T03:20:51;14.30;99.90
11188;DHT22;5650;52.700;7.306;2023-09-19T03:23:20;14.40;99.90
11188;DHT22;5650;52.700;7.306;2023-09-19T03:25:48;14.30;99.90
11188;DHT22;5650;52.700;7.306;2023-09-19T03:28:15;14.30;99.90
11188;DHT22;5650;52.700;7.306;2023-09-19T03:30:57;14.30;99.90
11188;DHT22;5650;52.700;7.306;2023-09-19T03:33:27;14.30;99.90
11188;DHT22;5650;52.700;7.306;2023-09-19T03:35:58;14.30;99.90
11188;DHT22;5650;52.700;7.306;2023-09-19T03:38:29;14.30;99.90
11188;DHT22;5650;52.700;7.306;2023-09-19T03:40:57;14.30;99.90
11188;DHT22;5650;52.700;7.306;2023-09-19T03:43:24;14.30;99.90
11188;DHT22;5650;52.700;7.306;2023-09-19T03:45:54;14.20;99.90
11188;DHT22;5650;52.700;7.306;2023-09-19T03:48:21;14.20;99.90
11188;DHT22;5650;52.700;7.306;2023-09-19T03:50:48;14.30;99.90
11188;DHT22;5650;52.700;7.306;2023-09-19T03:53:21;14.20;99.90
11188;DHT22;5650;52.700;7.306;2023-09-19T03:55:51;14.20;99.90
11188;DHT22;5650;52.700;7.306;2023-09-19T03:58:21;14.20;99.90
11188;DHT22;5650;52.700;7.306;2023-09-19T04:00:48;14.20;99.90
11188;DHT22;5650;52.700;7.306;2023-09-19T04:03:17;14.20;99.90
11188;DHT22;5650;52.700;7.306;2023-09-19T04:05:46;14.20;99.90
11188;DHT22;5650;52.700;7.306;2023-09-19T04:08:13;14.20;99.90
11188;DHT22;5650;52.700;7.306;2023-09-19T04:10:43;14.10;99.90
11188;DHT22;5650;52.700;7.306;2023-09-19T04:13:11;14.10;99.90
11188;DHT22;5650;52.700;7.306;2023-09-19T04:15:38;14.20;99.90
11188;DHT22;5650;52.700;7.306;2023-09-19T04:18:06;14.20;99.90
11188;DHT22;5650;52.700;7.306;2023-09-19T04:20:35;14.30;99.90
11188;DHT22;5650;52.700;7.306;2023-09-19T04:23:02;14.30;99.90
11188;DHT22;5650;52.700;7.306;2023-09-19T04:25:31;14.30;99.90
11188;DHT22;5650;52.700;7.306;2023-09-19T04:28:00;14.40;99.90
11188;DHT22;5650;52.700;7.306;2023-09-19T04:30:27;14.40;99.90
11188;DHT22;5650;52.700;7.306;2023-09-19T04:32:55;14.40;99.90
11188;DHT22;5650;52.700;7.306;2023-09-19T04:35:22;14.50;99.90
11188;DHT22;5650;52.700;7.306;2023-09-19T04:37:51;14.50;99.90
11188;DHT22;5650;52.700;7.306;2023-09-19T04:40:18;14.50;99.90
11188;DHT22;5650;52.700;7.306;2023-09-19T04:42:49;14.50;99.90
11188;DHT22;5650;52.700;7.306;2023-09-19T04:45:23;14.50;99.90
11188;DHT22;5650;52.700;7.306;2023-09-19T04:47:50;14.50;99.90
11188;DHT22;5650;52.700;7.306;2023-09-19T04:50:17;14.50;99.90
11188;DHT22;5650;52.700;7.306;2023-09-19T04:52:45;14.50;99.90
11188;DHT22;5650;52.700;7.306;2023-09-19T04:55:17;14.40;99.90
11188;DHT22;5650;52.700;7.306;2023-09-19T04:57:45;14.40;99.90
11188;DHT22;5650;52.700;7.306;2023-09-19T05:00:13;14.40;99.90
11188;DHT22;5650;52.700;7.306;2023-09-19T05:02:48;14.40;99.90
11188;DHT22;5650;52.700;7.306;2023-09-19T05:05:16;14.40;99.90
11188;DHT22;5650;52.700;7.306;2023-09-19T05:07:45;14.30;99.90
11188;DHT22;5650;52.700;7.306;2023-09-19T05:10:12;14.30;99.90
11188;DHT22;5650;52.700;7.306;2023-09-19T05:12:40;14.30;99.90
11188;DHT22;5650;52.700;7.306;2023-09-19T05:15:10;14.30;99.90
11188;DHT22;5650;52.700;7.306;2023-09-19T05:17:38;14.20;99.90
11188;DHT22;5650;52.700;7.306;2023-09-19T05:20:07;14.20;99.90
11188;DHT22;5650;52.700;7.306;2023-09-19T05:22:47;14.20;99.90
11188;DHT22;5650;52.700;7.306;2023-09-19T05:25:16;14.20;99.90
11188;DHT22;5650;52.700;7.306;2023-09-19T05:27:44;14.20;99.90
11188;DHT22;5650;52.700;7.306;2023-09-19T05:30:12;14.20;99.90
11188;DHT22;5650;52.700;7.306;2023-09-19T05:32:41;14.30;99.90
11188;DHT22;5650;52.700;7.306;2023-09-19T05:35:29;14.30;99.90
11188;DHT22;5650;52.700;7.306;2023-09-19T05:37:56;14.30;99.90
11188;DHT22;5650;52.700;7.306;2023-09-19T05:40:25;14.30;99.90
11188;DHT22;5650;52.700;7.306;2023-09-19T05:42:53;14.30;99.90
11188;DHT22;5650;52.700;7.306;2023-09-19T05:45:26;14.40;99.90
11188;DHT22;5650;52.700;7.306;2023-09-19T05:47:53;14.50;99.90
11188;DHT22;5650;52.700;7.306;2023-09-19T05:50:21;14.50;99.90
11188;DHT22;5650;52.700;7.306;2023-09-19T05:52:54;14.50;99.90
11188;DHT22;5650;52.700;7.306;2023-09-19T05:55:33;14.50;99.90
11188;DHT22;5650;52.700;7.306;2023-09-19T05:58:07;14.40;99.90
11188;DHT22;5650;52.700;7.306;2023-09-19T06:00:38;14.40;99.90
11188;DHT22;5650;52.700;7.306;2023-09-19T06:03:07;14.30;99.90
11188;DHT22;5650;52.700;7.306;2023-09-19T06:05:39;14.30;99.90
11188;DHT22;5650;52.700;7.306;2023-09-19T06:08:08;14.30;99.90
11188;DHT22;5650;52.700;7.306;2023-09-19T06:10:38;14.40;99.90
11188;DHT22;5650;52.700;7.306;2023-09-19T06:13:11;14.60;99.90
11188;DHT22;5650;52.700;7.306;2023-09-19T06:15:38;14.80;99.90
11188;DHT22;5650;52.700;7.306;2023-09-19T06:18:15;14.90;99.90
11188;DHT22;5650;52.700;7.306;2023-09-19T06:20:45;15.00;99.90
11188;DHT22;5650;52.700;7.306;2023-09-19T06:23:17;15.10;99.90
11188;DHT22;5650;52.700;7.306;2023-09-19T06:25:48;15.10;99.90
11188;DHT22;5650;52.700;7.306;2023-09-19T06:28:19;15.20;99.90
11188;DHT22;5650;52.700;7.306;2023-09-19T06:30:50;15.20;99.90
11188;DHT22;5650;52.700;7.306;2023-09-19T06:33:17;15.20;99.90
11188;DHT22;5650;52.700;7.306;2023-09-19T06:35:46;15.20;99.90
11188;DHT22;5650;52.700;7.306;2023-09-19T06:38:13;15.30;99.90
11188;DHT22;5650;52.700;7.306;2023-09-19T06:40:42;15.40;99.90
11188;DHT22;5650;52.700;7.306;2023-09-19T06:43:10;15.50;99.90
11188;DHT22;5650;52.700;7.306;2023-09-19T06:45:40;15.70;99.90
11188;DHT22;5650;52.700;7.306;2023-09-19T06:48:08;16.20;99.90
11188;DHT22;5650;52.700;7.306;2023-09-19T06:50:42;16.70;99.90
11188;DHT22;5650;52.700;7.306;2023-09-19T06:53:13;17.10;99.90
11188;DHT22;5650;52.700;7.306;2023-09-19T06:55:43;17.00;99.90
11188;DHT22;5650;52.700;7.306;2023-09-19T06:58:13;16.80;99.90
11188;DHT22;5650;52.700;7.306;2023-09-19T07:00:42;16.60;99.90
11188;DHT22;5650;52.700;7.306;2023-09-19T07:03:16;16.30;99.90
11188;DHT22;5650;52.700;7.306;2023-09-19T07:05:47;16.20;99.90
11188;DHT22;5650;52.700;7.306;2023-09-19T07:08:18;16.00;99.90
11188;DHT22;5650;52.700;7.306;2023-09-19T07:10:47;15.90;99.90
11188;DHT22;5650;52.700;7.306;2023-09-19T07:13:16;15.70;99.90
11188;DHT22;5650;52.700;7.306;2023-09-19T07:15:44;15.70;99.90
11188;DHT22;5650;52.700;7.306;2023-09-19T07:18:13;15.60;99.90
11188;DHT22;5650;52.700;7.306;2023-09-19T07:20:42;15.60;99.90
11188;DHT22;5650;52.700;7.306;2023-09-19T07:23:18;15.70;99.90
11188;DHT22;5650;52.700;7.306;2023-09-19T07:25:48;15.70;99.90
11188;DHT22;5650;52.700;7.306;2023-09-19T07:28:16;15.80;99.90
11188;DHT22;5650;52.700;7.306;2023-09-19T07:30:43;15.90;99.90
11188;DHT22;5650;52.700;7.306;2023-09-19T07:33:12;16.00;99.90
11188;DHT22;5650;52.700;7.306;2023-09-19T07:35:45;16.20;99.90
11188;DHT22;5650;52.700;7.306;2023-09-19T07:38:13;16.30;99.90
11188;DHT22;5650;52.700;7.306;2023-09-19T07:40:40;16.60;99.90
11188;DHT22;5650;52.700;7.306;2023-09-19T07:43:18;16.80;99.90
11188;DHT22;5650;52.700;7.306;2023-09-19T07:45:45;17.10;99.90
11188;DHT22;5650;52.700;7.306;2023-09-19T07:48:12;17.30;99.90
11188;DHT22;5650;52.700;7.306;2023-09-19T07:50:43;17.50;99.90
11188;DHT22;5650;52.700;7.306;2023-09-19T07:53:14;17.60;99.90
11188;DHT22;5650;52.700;7.306;2023-09-19T07:55:49;17.70;99.90
11188;DHT22;5650;52.700;7.306;2023-09-19T07:58:20;17.90;99.90
11188;DHT22;5650;52.700;7.306;2023-09-19T08:00:51;18.00;99.90
11188;DHT22;5650;52.700;7.306;2023-09-19T08:03:18;18.00;99.90
11188;DHT22;5650;52.700;7.306;2023-09-19T08:05:45;18.10;99.90
11188;DHT22;5650;52.700;7.306;2023-09-19T08:08:19;18.10;99.90
11188;DHT22;5650;52.700;7.306;2023-09-19T08:10:55;18.20;99.90
11188;DHT22;5650;52.700;7.306;2023-09-19T08:13:25;18.30;99.90
11188;DHT22;5650;52.700;7.306;2023-09-19T08:15:56;18.40;99.90
11188;DHT22;5650;52.700;7.306;2023-09-19T08:18:23;18.60;99.90
11188;DHT22;5650;52.700;7.306;2023-09-19T08:20:57;18.70;99.90
11188;DHT22;5650;52.700;7.306;2023-09-19T08:23:37;18.80;99.90
11188;DHT22;5650;52.700;7.306;2023-09-19T08:26:10;18.90;99.90
11188;DHT22;5650;52.700;7.306;2023-09-19T08:28:41;18.90;99.90
11188;DHT22;5650;52.700;7.306;2023-09-19T08:31:09;18.90;99.90
11188;DHT22;5650;52.700;7.306;2023-09-19T08:33:39;19.00;99.90
11188;DHT22;5650;52.700;7.306;2023-09-19T08:36:15;18.90;99.90
11188;DHT22;5650;52.700;7.306;2023-09-19T08:38:52;18.80;99.90
11188;DHT22;5650;52.700;7.306;2023-09-19T08:41:19;18.60;99.90
11188;DHT22;5650;52.700;7.306;2023-09-19T08:43:48;18.50;99.90
11188;DHT22;5650;52.700;7.306;2023-09-19T08:46:17;18.40;99.90
11188;DHT22;5650;52.700;7.306;2023-09-19T08:48:46;18.40;99.90
11188;DHT22;5650;52.700;7.306;2023-09-19T08:51:20;18.30;99.90
11188;DHT22;5650;52.700;7.306;2023-09-19T08:53:52;18.30;99.90
11188;DHT22;5650;52.700;7.306;2023-09-19T08:56:22;18.30;99.90
11188;DHT22;5650;52.700;7.306;2023-09-19T08:59:00;18.20;99.90
11188;DHT22;5650;52.700;7.306;2023-09-19T09:01:27;18.30;99.90
11188;DHT22;5650;52.700;7.306;2023-09-19T09:03:56;18.30;99.90
11188;DHT22;5650;52.700;7.306;2023-09-19T09:06:25;18.30;99.90
11188;DHT22;5650;52.700;7.306;2023-09-19T09:08:56;18.30;99.90
11188;DHT22;5650;52.700;7.306;2023-09-19T09:11:23;18.20;99.90
11188;DHT22;5650;52.700;7.306;2023-09-19T09:13:53;18.20;99.90
11188;DHT22;5650;52.700;7.306;2023-09-19T09:16:23;18.10;99.90
11188;DHT22;5650;52.700;7.306;2023-09-19T09:18:51;18.20;99.90
11188;DHT22;5650;52.700;7.306;2023-09-19T09:21:20;18.20;99.90
11188;DHT22;5650;52.700;7.306;2023-09-19T09:23:47;18.20;99.90
11188;DHT22;5650;52.700;7.306;2023-09-19T09:26:41;18.30;99.90
11188;DHT22;5650;52.700;7.306;2023-09-19T09:29:15;18.30;99.90
11188;DHT22;5650;52.700;7.306;2023-09-19T09:31:44;18.40;99.90
11188;DHT22;5650;52.700;7.306;2023-09-19T09:34:14;18.50;99.90
11188;DHT22;5650;52.700;7.306;2023-09-19T09:36:42;18.50;99.90
11188;DHT22;5650;52.700;7.306;2023-09-19T09:39:30;18.60;99.90
11188;DHT22;5650;52.700;7.306;2023-09-19T09:42:07;18.70;99.90
11188;DHT22;5650;52.700;7.306;2023-09-19T09:44:35;18.80;99.90
11188;DHT22;5650;52.700;7.306;2023-09-19T09:47:41;18.90;99.90
11188;DHT22;5650;52.700;7.306;2023-09-19T09:50:11;18.90;99.90
11188;DHT22;5650;52.700;7.306;2023-09-19T09:52:52;19.00;99.90
11188;DHT22;5650;52.700;7.306;2023-09-19T09:55:21;19.00;99.90
11188;DHT22;5650;52.700;7.306;2023-09-19T10:00:52;19.10;99.90
11188;DHT22;5650;52.700;7.306;2023-09-19T10:03:31;19.10;99.90
11188;DHT22;5650;52.700;7.306;2023-09-19T10:06:00;19.10;99.90
11188;DHT22;5650;52.700;7.306;2023-09-19T10:08:35;19.10;99.90
11188;DHT22;5650;52.700;7.306;2023-09-19T10:11:15;19.10;99.90
11188;DHT22;5650;52.700;7.306;2023-09-19T10:13:45;19.20;99.90
11188;DHT22;5650;52.700;7.306;2023-09-19T10:16:13;19.30;99.90
11188;DHT22;5650;52.700;7.306;2023-09-19T10:18:46;19.40;99.90
11188;DHT22;5650;52.700;7.306;2023-09-19T10:21:18;19.40;99.90
11188;DHT22;5650;52.700;7.306;2023-09-19T10:23:54;19.40;99.90
11188;DHT22;5650;52.700;7.306;2023-09-19T10:26:25;19.40;99.90
11188;DHT22;5650;52.700;7.306;2023-09-19T10:28:57;19.40;99.90
11188;DHT22;5650;52.700;7.306;2023-09-19T10:31:28;19.50;99.90
11188;DHT22;5650;52.700;7.306;2023-09-19T10:34:03;19.40;99.90
11188;DHT22;5650;52.700;7.306;2023-09-19T10:36:33;19.40;99.90
11188;DHT22;5650;52.700;7.306;2023-09-19T10:39:05;19.50;99.90
11188;DHT22;5650;52.700;7.306;2023-09-19T10:41:34;19.50;99.90
11188;DHT22;5650;52.700;7.306;2023-09-19T10:44:04;19.50;99.90
11188;DHT22;5650;52.700;7.306;2023-09-19T10:46:32;19.50;99.90
11188;DHT22;5650;52.700;7.306;2023-09-19T10:49:01;19.60;99.90
11188;DHT22;5650;52.700;7.306;2023-09-19T10:51:31;19.60;99.90
11188;DHT22;5650;52.700;7.306;2023-09-19T10:54:08;19.60;99.90
11188;DHT22;5650;52.700;7.306;2023-09-19T10:56:42;19.60;99.90
11188;DHT22;5650;52.700;7.306;2023-09-19T10:59:15;19.70;99.90
11188;DHT22;5650;52.700;7.306;2023-09-19T11:01:44;19.70;99.90
11188;DHT22;5650;52.700;7.306;2023-09-19T11:04:32;19.80;99.90
11188;DHT22;5650;52.700;7.306;2023-09-19T11:07:05;19.90;99.90
11188;DHT22;5650;52.700;7.306;2023-09-19T11:09:46;19.90;99.90
11188;DHT22;5650;52.700;7.306;2023-09-19T11:24:30;19.90;99.90
11188;DHT22;5650;52.700;7.306;2023-09-19T11:27:12;20.00;99.90
11188;DHT22;5650;52.700;7.306;2023-09-19T11:29:40;20.00;99.90
11188;DHT22;5650;52.700;7.306;2023-09-19T11:32:08;20.00;99.90
11188;DHT22;5650;52.700;7.306;2023-09-19T11:34:46;20.10;99.90
11188;DHT22;5650;52.700;7.306;2023-09-19T11:44:31;20.40;99.90
11188;DHT22;5650;52.700;7.306;2023-09-19T11:47:00;20.50;99.90
11188;DHT22;5650;52.700;7.306;2023-09-19T11:49:30;20.50;99.90
11188;DHT22;5650;52.700;7.306;2023-09-19T11:51:59;20.50;99.90
11188;DHT22;5650;52.700;7.306;2023-09-19T11:54:30;20.40;99.90
11188;DHT22;5650;52.700;7.306;2023-09-19T11:57:00;20.30;99.90
11188;DHT22;5650;52.700;7.306;2023-09-19T11:59:29;20.30;99.90
11188;DHT22;5650;52.700;7.306;2023-09-19T12:01:58;20.20;99.90
11188;DHT22;5650;52.700;7.306;2023-09-19T12:04:35;20.20;99.90
11188;DHT22;5650;52.700;7.306;2023-09-19T12:07:05;20.20;99.90
11188;DHT22;5650;52.700;7.306;2023-09-19T12:09:38;20.30;99.90
11188;DHT22;5650;52.700;7.306;2023-09-19T12:12:11;20.50;99.90
11188;DHT22;5650;52.700;7.306;2023-09-19T12:14:48;20.60;99.90
11188;DHT22;5650;52.700;7.306;2023-09-19T12:17:16;20.60;99.90
11188;DHT22;5650;52.700;7.306;2023-09-19T12:19:50;20.60;99.90
11188;DHT22;5650;52.700;7.306;2023-09-19T12:22:18;20.50;99.90
11188;DHT22;5650;52.700;7.306;2023-09-19T12:24:46;20.50;99.90
11188;DHT22;5650;52.700;7.306;2023-09-19T12:27:15;20.40;99.90
11188;DHT22;5650;52.700;7.306;2023-09-19T12:29:43;20.30;99.90
11188;DHT22;5650;52.700;7.306;2023-09-19T12:32:11;20.30;99.90
11188;DHT22;5650;52.700;7.306;2023-09-19T12:34:49;20.30;99.90
11188;DHT22;5650;52.700;7.306;2023-09-19T12:37:18;20.30;99.90
11188;DHT22;5650;52.700;7.306;2023-09-19T12:39:49;20.30;99.90
11188;DHT22;5650;52.700;7.306;2023-09-19T12:42:26;20.30;99.90
11188;DHT22;5650;52.700;7.306;2023-09-19T12:45:16;20.40;99.90
11188;DHT22;5650;52.700;7.306;2023-09-19T12:48:20;20.40;99.90
11188;DHT22;5650;52.700;7.306;2023-09-19T12:51:02;20.50;99.90
11188;DHT22;5650;52.700;7.306;2023-09-19T12:53:32;20.50;99.90
11188;DHT22;5650;52.700;7.306;2023-09-19T12:56:02;20.60;99.90
11188;DHT22;5650;52.700;7.306;2023-09-19T12:58:53;20.70;99.90
11188;DHT22;5650;52.700;7.306;2023-09-19T13:01:27;20.90;99.90
11188;DHT22;5650;52.700;7.306;2023-09-19T13:04:14;21.00;99.90
11188;DHT22;5650;52.700;7.306;2023-09-19T13:06:44;21.00;99.90
11188;DHT22;5650;52.700;7.306;2023-09-19T13:09:12;20.90;99.90
11188;DHT22;5650;52.700;7.306;2023-09-19T13:11:40;20.80;99.90
11188;DHT22;5650;52.700;7.306;2023-09-19T13:14:19;20.90;99.90
11188;DHT22;5650;52.700;7.306;2023-09-19T13:16:57;20.90;99.90
11188;DHT22;5650;52.700;7.306;2023-09-19T13:19:37;20.80;99.90
11188;DHT22;5650;52.700;7.306;2023-09-19T13:22:05;20.70;99.90
11188;DHT22;5650;52.700;7.306;2023-09-19T13:24:53;20.70;99.90
11188;DHT22;5650;52.700;7.306;2023-09-19T13:27:20;20.70;99.90
11188;DHT22;5650;52.700;7.306;2023-09-19T13:29:49;20.70;99.90
11188;DHT22;5650;52.700;7.306;2023-09-19T13:32:16;20.70;99.90
11188;DHT22;5650;52.700;7.306;2023-09-19T13:34:44;20.60;99.90
11188;DHT22;5650;52.700;7.306;2023-09-19T13:37:11;20.50;99.90
11188;DHT22;5650;52.700;7.306;2023-09-19T13:39:39;20.50;99.90
11188;DHT22;5650;52.700;7.306;2023-09-19T13:42:10;20.40;99.90
11188;DHT22;5650;52.700;7.306;2023-09-19T13:44:39;20.30;99.90
11188;DHT22;5650;52.700;7.306;2023-09-19T13:47:08;20.30;99.90
11188;DHT22;5650;52.700;7.306;2023-09-19T13:49:36;20.20;99.90
11188;DHT22;5650;52.700;7.306;2023-09-19T13:52:04;20.20;99.90
11188;DHT22;5650;52.700;7.306;2023-09-19T13:54:31;20.30;99.90
11188;DHT22;5650;52.700;7.306;2023-09-19T13:56:58;20.30;99.90
11188;DHT22;5650;52.700;7.306;2023-09-19T13:59:26;20.30;99.90
11188;DHT22;5650;52.700;7.306;2023-09-19T14:01:58;20.30;99.90
11188;DHT22;5650;52.700;7.306;2023-09-19T14:04:27;20.30;99.90
11188;DHT22;5650;52.700;7.306;2023-09-19T14:06:54;20.20;99.90
11188;DHT22;5650;52.700;7.306;2023-09-19T14:09:23;20.00;99.90
11188;DHT22;5650;52.700;7.306;2023-09-19T14:11:52;20.00;99.90
11188;DHT22;5650;52.700;7.306;2023-09-19T14:14:20;19.90;99.90
11188;DHT22;5650;52.700;7.306;2023-09-19T14:16:51;19.80;99.90
11188;DHT22;5650;52.700;7.306;2023-09-19T14:19:19;19.80;99.90
11188;DHT22;5650;52.700;7.306;2023-09-19T14:21:47;19.70;99.90
11188;DHT22;5650;52.700;7.306;2023-09-19T14:24:17;19.70;99.90
11188;DHT22;5650;52.700;7.306;2023-09-19T14:26:45;19.60;99.90
11188;DHT22;5650;52.700;7.306;2023-09-19T14:29:13;19.50;99.90
11188;DHT22;5650;52.700;7.306;2023-09-19T14:31:40;19.50;99.90
11188;DHT22;5650;52.700;7.306;2023-09-19T14:34:08;19.50;99.90
11188;DHT22;5650;52.700;7.306;2023-09-19T14:36:36;19.50;99.90
11188;DHT22;5650;52.700;7.306;2023-09-19T14:39:08;19.60;99.90
11188;DHT22;5650;52.700;7.306;2023-09-19T14:41:39;19.60;99.90
11188;DHT22;5650;52.700;7.306;2023-09-19T14:44:07;19.70;99.90
11188;DHT22;5650;52.700;7.306;2023-09-19T14:46:36;19.70;99.90
11188;DHT22;5650;52.700;7.306;2023-09-19T14:49:06;19.70;99.90
11188;DHT22;5650;52.700;7.306;2023-09-19T14:51:37;19.80;99.90
11188;DHT22;5650;52.700;7.306;2023-09-19T14:54:13;19.70;99.90
11188;DHT22;5650;52.700;7.306;2023-09-19T14:56:43;19.70;99.90
11188;DHT22;5650;52.700;7.306;2023-09-19T14:59:24;19.70;99.90
11188;DHT22;5650;52.700;7.306;2023-09-19T15:01:54;19.60;99.90
11188;DHT22;5650;52.700;7.306;2023-09-19T15:04:22;19.60;99.90
11188;DHT22;5650;52.700;7.306;2023-09-19T15:06:50;19.50;99.90
11188;DHT22;5650;52.700;7.306;2023-09-19T15:09:22;19.50;99.90
11188;DHT22;5650;52.700;7.306;2023-09-19T15:11:52;19.50;99.90
11188;DHT22;5650;52.700;7.306;2023-09-19T15:14:19;19.60;99.90
11188;DHT22;5650;52.700;7.306;2023-09-19T15:16:47;19.60;99.90
11188;DHT22;5650;52.700;7.306;2023-09-19T15:19:14;19.70;99.90
11188;DHT22;5650;52.700;7.306;2023-09-19T15:21:42;19.70;99.90
11188;DHT22;5650;52.700;7.306;2023-09-19T15:24:12;19.70;99.90
11188;DHT22;5650;52.700;7.306;2023-09-19T15:26:44;19.70;99.90
11188;DHT22;5650;52.700;7.306;2023-09-19T15:29:15;19.70;99.90
11188;DHT22;5650;52.700;7.306;2023-09-19T15:31:42;19.70;99.90
11188;DHT22;5650;52.700;7.306;2023-09-19T15:34:09;19.70;99.90
11188;DHT22;5650;52.700;7.306;2023-09-19T15:36:39;19.70;99.90
11188;DHT22;5650;52.700;7.306;2023-09-19T15:39:07;19.70;99.90
11188;DHT22;5650;52.700;7.306;2023-09-19T15:41:41;19.70;99.90
11188;DHT22;5650;52.700;7.306;2023-09-19T15:44:17;19.70;99.90
11188;DHT22;5650;52.700;7.306;2023-09-19T15:46:47;19.70;99.90
11188;DHT22;5650;52.700;7.306;2023-09-19T15:49:15;19.70;99.90
11188;DHT22;5650;52.700;7.306;2023-09-19T15:51:42;19.70;99.90
11188;DHT22;5650;52.700;7.306;2023-09-19T15:54:11;19.70;99.90
11188;DHT22;5650;52.700;7.306;2023-09-19T15:56:42;19.70;99.90
11188;DHT22;5650;52.700;7.306;2023-09-19T15:59:12;19.70;99.90
11188;DHT22;5650;52.700;7.306;2023-09-19T16:01:44;19.70;99.90
11188;DHT22;5650;52.700;7.306;2023-09-19T16:04:11;19.70;99.90
11188;DHT22;5650;52.700;7.306;2023-09-19T16:06:45;19.60;99.90
11188;DHT22;5650;52.700;7.306;2023-09-19T16:09:12;19.60;99.90
11188;DHT22;5650;52.700;7.306;2023-09-19T16:11:47;19.50;99.90
11188;DHT22;5650;52.700;7.306;2023-09-19T16:14:17;19.50;99.90
11188;DHT22;5650;52.700;7.306;2023-09-19T16:16:45;19.40;99.90
11188;DHT22;5650;52.700;7.306;2023-09-19T16:19:12;19.40;99.90
11188;DHT22;5650;52.700;7.306;2023-09-19T16:21:45;19.30;99.90
11188;DHT22;5650;52.700;7.306;2023-09-19T16:24:15;19.30;99.90
11188;DHT22;5650;52.700;7.306;2023-09-19T16:26:47;19.20;99.90
11188;DHT22;5650;52.700;7.306;2023-09-19T16:29:20;19.20;99.90
11188;DHT22;5650;52.700;7.306;2023-09-19T16:31:50;19.10;99.90
11188;DHT22;5650;52.700;7.306;2023-09-19T16:34:20;19.10;99.90
11188;DHT22;5650;52.700;7.306;2023-09-19T16:36:48;19.10;99.90
11188;DHT22;5650;52.700;7.306;2023-09-19T16:39:15;19.10;99.90
11188;DHT22;5650;52.700;7.306;2023-09-19T16:41:43;19.10;99.90